createdAt,value
2023-05-22T00:00:16.967Z,70.04
2023-05-22T00:02:45.016Z,70.18
2023-05-22T00:05:15.744Z,69.62
2023-05-22T00:07:45.142Z,69.78
2023-05-22T00:10:12.934Z,68.83
2023-05-22T00:12:39.888Z,70.03
2023-05-22T00:15:11.879Z,70.78
2023-05-22T00:17:40.182Z,70.77
2023-05-22T00:20:09.300Z,70.57
2023-05-22T00:22:46.189Z,69.97
2023-05-22T00:25:15.594Z,70.33
2023-05-22T00:27:44.676Z,70.19
2023-05-22T00:30:12.438Z,69.60
2023-05-22T00:32:43.649Z,70.17
2023-05-22T00:35:15.980Z,70.06
2023-05-22T00:37:47.041Z,71.02
2023-05-22T00:40:18.438Z,71.37
2023-05-22T00:42:46.393Z,71.21
2023-05-22T00:45:16.435Z,71.01
2023-05-22T00:47:43.875Z,71.35
2023-05-22T00:50:12.170Z,71.34
2023-05-22T00:52:45.817Z,70.81
2023-05-22T00:55:18.363Z,70.93
2023-05-22T00:57:50.624Z,71.35
2023-05-22T01:00:18.120Z,71.32
2023-05-22T01:02:45.404Z,71.41
2023-05-22T01:05:18.528Z,71.56
2023-05-22T01:07:48.925Z,71.77
2023-05-22T01:10:16.054Z,71.97
2023-05-22T01:13:05.283Z,71.24
2023-05-22T01:15:32.201Z,72.33
2023-05-22T01:18:35.348Z,72.03
2023-05-22T01:21:23.772Z,71.92
2023-05-22T01:24:25.951Z,70.17
2023-05-22T01:27:01.696Z,70.11
2023-05-22T01:29:31.527Z,70.72
2023-05-22T01:32:00.882Z,69.69
2023-05-22T01:34:34.360Z,69.86
2023-05-22T01:37:02.278Z,70.01
2023-05-22T01:39:31.235Z,69.46
2023-05-22T01:42:00.959Z,69.45
2023-05-22T01:44:29.059Z,69.50
2023-05-22T01:47:00.838Z,69.64
2023-05-22T01:49:34.921Z,70.35
2023-05-22T01:52:37.515Z,69.49
2023-05-22T01:55:13.728Z,69.60
2023-05-22T01:57:48.538Z,69.36
2023-05-22T02:00:18.765Z,70.43
2023-05-22T02:02:54.247Z,70.04
2023-05-22T02:05:27.566Z,69.99
2023-05-22T02:07:57.141Z,68.90
2023-05-22T02:10:26.301Z,68.38
2023-05-22T02:12:54.166Z,68.95
2023-05-22T02:15:21.632Z,69.21
2023-05-22T02:17:50.190Z,69.41
2023-05-22T02:20:17.438Z,69.55
2023-05-22T02:22:52.264Z,69.45
2023-05-22T02:25:19.475Z,70.07
2023-05-22T02:27:48.230Z,70.88
2023-05-22T02:30:15.910Z,69.96
2023-05-22T02:32:43.234Z,70.46
2023-05-22T02:35:11.636Z,70.57
2023-05-22T02:37:39.035Z,70.55
2023-05-22T02:40:08.208Z,70.43
2023-05-22T02:42:35.185Z,70.71
2023-05-22T02:45:05.718Z,70.42
2023-05-22T02:47:32.788Z,70.71
2023-05-22T02:50:02.803Z,70.58
2023-05-22T02:52:31.280Z,71.11
2023-05-22T02:54:58.238Z,70.79
2023-05-22T02:57:25.172Z,71.08
2023-05-22T02:59:52.940Z,71.10
2023-05-22T03:02:21.011Z,71.13
2023-05-22T03:04:48.025Z,70.81
2023-05-22T03:07:20.581Z,70.41
2023-05-22T03:09:47.961Z,70.42
2023-05-22T03:12:16.567Z,71.39
2023-05-22T03:14:43.616Z,71.59
2023-05-22T03:17:10.685Z,72.04
2023-05-22T03:19:37.768Z,71.81
2023-05-22T03:22:04.776Z,72.09
2023-05-22T03:24:32.671Z,72.04
2023-05-22T03:27:00.734Z,71.37
2023-05-22T03:29:27.845Z,71.40
2023-05-22T03:31:57.329Z,72.25
2023-05-22T03:34:27.747Z,71.55
2023-05-22T03:36:59.095Z,72.10
2023-05-22T03:39:26.239Z,72.80
2023-05-22T03:41:54.383Z,72.61
2023-05-22T03:44:25.449Z,72.70
2023-05-22T03:47:00.454Z,73.03
2023-05-22T03:49:27.634Z,72.66
2023-05-22T03:51:54.693Z,72.36
2023-05-22T03:54:22.992Z,72.04
2023-05-22T03:56:50.502Z,72.42
2023-05-22T03:59:17.576Z,72.44
2023-05-22T04:01:46.858Z,72.83
2023-05-22T04:04:14.548Z,72.48
2023-05-22T04:06:43.549Z,72.89
2023-05-22T04:09:12.329Z,73.04
2023-05-22T04:11:40.229Z,72.47
2023-05-22T04:14:07.506Z,72.94
2023-05-22T04:16:37.761Z,73.03
2023-05-22T04:19:10.326Z,73.07
2023-05-22T04:21:38.787Z,72.72
2023-05-22T04:24:09.739Z,73.17
2023-05-22T04:26:40.982Z,72.50
2023-05-22T04:29:10.827Z,72.64
2023-05-22T04:31:37.782Z,73.00
2023-05-22T04:34:05.712Z,73.02
2023-05-22T04:36:32.745Z,72.58
2023-05-22T04:39:00.699Z,72.97
2023-05-22T04:41:27.752Z,73.10
2023-05-22T04:43:55.203Z,73.24
2023-05-22T04:46:22.832Z,72.57
2023-05-22T04:48:50.033Z,71.56
2023-05-22T04:51:16.995Z,72.08
2023-05-22T04:53:43.942Z,72.22
2023-05-22T04:56:13.108Z,72.01
2023-05-22T04:58:41.745Z,72.18
2023-05-22T05:01:18.998Z,72.26
2023-05-22T05:03:48.012Z,72.16
2023-05-22T05:06:15.839Z,72.20
2023-05-22T05:08:44.613Z,72.04
2023-05-22T05:11:11.824Z,72.09
2023-05-22T05:13:38.877Z,71.47
2023-05-22T05:16:07.682Z,71.59
2023-05-22T05:18:35.767Z,71.78
2023-05-22T05:21:02.875Z,71.45
2023-05-22T05:23:29.863Z,71.47
2023-05-22T05:25:57.260Z,71.72
2023-05-22T05:28:24.275Z,71.83
2023-05-22T05:30:51.707Z,71.57
2023-05-22T05:33:20.064Z,71.97
2023-05-22T05:35:52.974Z,70.62
2023-05-22T05:38:20.397Z,70.90
2023-05-22T05:40:47.542Z,71.01
2023-05-22T05:43:22.109Z,70.54
2023-05-22T05:45:49.268Z,71.27
2023-05-22T05:48:16.838Z,70.91
2023-05-22T05:50:50.626Z,71.45
2023-05-22T05:53:18.785Z,71.43
2023-05-22T05:55:47.366Z,70.75
2023-05-22T05:58:17.680Z,70.97
2023-05-22T06:00:44.923Z,70.58
2023-05-22T06:03:12.236Z,70.52
2023-05-22T06:05:39.505Z,71.10
2023-05-22T06:08:11.952Z,70.59
2023-05-22T06:10:40.467Z,71.25
2023-05-22T06:13:07.768Z,70.74
2023-05-22T06:15:34.808Z,71.28
2023-05-22T06:18:02.981Z,70.38
2023-05-22T06:20:30.454Z,70.19
2023-05-22T06:22:57.451Z,70.05
2023-05-22T06:25:26.441Z,70.11
2023-05-22T06:27:53.538Z,69.92
2023-05-22T06:30:38.411Z,69.86
2023-05-22T06:33:08.291Z,70.07
2023-05-22T06:35:35.362Z,69.40
2023-05-22T06:38:02.618Z,69.84
2023-05-22T06:40:32.471Z,69.73
2023-05-22T06:43:02.708Z,69.84
2023-05-22T06:45:35.464Z,69.47
2023-05-22T06:48:02.786Z,68.20
2023-05-22T06:50:31.681Z,68.17
2023-05-22T06:52:58.811Z,68.85
2023-05-22T06:55:27.381Z,68.44
2023-05-22T06:57:54.362Z,68.74
2023-05-22T07:00:22.050Z,68.29
2023-05-22T07:02:50.423Z,68.84
2023-05-22T07:05:17.858Z,68.60
2023-05-22T07:07:45.088Z,68.29
2023-05-22T07:10:12.187Z,68.52
2023-05-22T07:12:39.833Z,68.92
2023-05-22T07:15:12.098Z,69.03
2023-05-22T07:17:42.022Z,69.59
2023-05-22T07:20:12.301Z,68.78
2023-05-22T07:22:42.125Z,69.11
2023-05-22T07:25:09.507Z,68.49
2023-05-22T07:27:36.804Z,69.12
2023-05-22T07:30:04.660Z,68.38
2023-05-22T07:32:31.600Z,68.38
2023-05-22T07:35:01.723Z,68.61
2023-05-22T07:37:30.375Z,69.31
2023-05-22T07:39:57.562Z,68.15
2023-05-22T07:42:26.597Z,68.04
2023-05-22T07:44:56.568Z,67.82
2023-05-22T07:47:23.593Z,67.86
2023-05-22T07:49:50.666Z,67.55
2023-05-22T07:52:17.732Z,66.50
2023-05-22T07:54:45.529Z,66.73
2023-05-22T07:57:14.309Z,66.14
2023-05-22T07:59:43.914Z,65.98
2023-05-22T08:02:11.922Z,66.37
2023-05-22T08:04:39.627Z,66.11
2023-05-22T08:07:07.052Z,66.28
2023-05-22T08:09:34.433Z,65.81
2023-05-22T08:12:01.570Z,67.17
2023-05-22T08:14:31.917Z,66.70
2023-05-22T08:16:59.940Z,66.35
2023-05-22T08:19:29.491Z,66.73
2023-05-22T08:21:58.515Z,65.85
2023-05-22T08:24:31.084Z,66.02
2023-05-22T08:27:02.134Z,66.06
2023-05-22T08:29:29.312Z,62.97
2023-05-22T08:31:58.508Z,64.79
2023-05-22T08:34:30.227Z,64.76
2023-05-22T08:37:00.385Z,63.67
2023-05-22T08:39:27.364Z,62.96
2023-05-22T08:41:54.680Z,63.78
2023-05-22T08:44:25.144Z,64.45
2023-05-22T08:46:56.926Z,62.95
2023-05-22T08:49:24.649Z,64.05
2023-05-22T08:52:03.609Z,62.89
2023-05-22T08:54:32.561Z,62.72
2023-05-22T08:57:01.445Z,63.30
2023-05-22T08:59:30.050Z,63.08
2023-05-22T09:01:59.697Z,62.78
2023-05-22T09:04:28.747Z,63.47
2023-05-22T09:06:55.842Z,61.99
2023-05-22T09:09:23.654Z,61.72
2023-05-22T09:11:57.643Z,60.91
2023-05-22T09:14:26.149Z,60.10
2023-05-22T09:16:55.203Z,60.83
2023-05-22T09:19:22.334Z,62.36
2023-05-22T09:21:50.798Z,60.73
2023-05-22T09:24:18.100Z,60.97
2023-05-22T09:26:46.905Z,61.13
2023-05-22T09:29:17.451Z,61.28
2023-05-22T09:31:45.282Z,61.43
2023-05-22T09:34:16.000Z,60.75
2023-05-22T09:36:43.681Z,61.93
2023-05-22T09:39:11.398Z,61.87
2023-05-22T09:41:41.740Z,61.90
2023-05-22T09:44:16.500Z,61.89
2023-05-22T09:46:48.108Z,57.04
2023-05-22T09:49:16.814Z,58.32
2023-05-22T09:51:49.901Z,59.36
2023-05-22T09:54:19.132Z,59.00
2023-05-22T09:56:56.850Z,58.34
2023-05-22T09:59:30.570Z,56.99
2023-05-22T10:01:58.670Z,58.03
2023-05-22T10:04:28.445Z,58.26
2023-05-22T10:07:01.260Z,57.94
2023-05-22T10:09:34.436Z,56.62
2023-05-22T10:12:06.334Z,56.35
2023-05-22T10:14:35.893Z,56.23
2023-05-22T10:17:04.964Z,56.66
2023-05-22T10:19:34.230Z,57.57
2023-05-22T10:22:01.862Z,56.73
2023-05-22T10:24:33.191Z,54.63
2023-05-22T10:27:00.413Z,54.52
2023-05-22T10:30:04.128Z,52.62
2023-05-22T10:32:48.968Z,51.44
2023-05-22T10:35:30.233Z,51.33
2023-05-22T10:38:17.065Z,52.90
2023-05-22T10:40:52.815Z,53.30
2023-05-22T10:43:22.037Z,52.65
2023-05-22T10:45:50.802Z,54.24
2023-05-22T10:48:22.395Z,54.17
2023-05-22T10:50:55.288Z,51.86
2023-05-22T10:53:27.344Z,51.96
2023-05-22T10:55:55.136Z,51.29
2023-05-22T10:58:34.802Z,51.58
2023-05-22T11:01:18.777Z,52.04
2023-05-22T11:04:00.865Z,51.55
2023-05-22T11:07:08.290Z,50.23
2023-05-22T11:09:46.215Z,50.82
2023-05-22T11:12:28.982Z,51.15
2023-05-22T11:15:06.780Z,52.14
2023-05-22T11:17:36.663Z,49.87
2023-05-22T11:20:07.837Z,50.13
2023-05-22T11:22:42.885Z,49.32
2023-05-22T11:25:20.549Z,50.06
2023-05-22T11:27:51.086Z,49.91
2023-05-22T11:30:18.092Z,51.09
2023-05-22T11:32:46.797Z,51.21
2023-05-22T11:35:24.101Z,49.19
2023-05-22T11:37:53.797Z,51.16
2023-05-22T11:40:26.880Z,48.78
2023-05-22T11:42:57.848Z,48.63
2023-05-22T11:45:25.717Z,52.72
2023-05-22T11:47:53.264Z,54.22
2023-05-22T11:50:33.542Z,52.35
2023-05-22T11:53:11.210Z,51.08
2023-05-22T11:55:43.198Z,52.04
2023-05-22T11:58:11.229Z,50.65
2023-05-22T12:00:38.578Z,50.74
2023-05-22T12:03:06.871Z,49.55
2023-05-22T12:05:33.907Z,51.38
2023-05-22T12:08:01.466Z,51.46
2023-05-22T12:10:30.064Z,50.43
2023-05-22T12:12:57.057Z,51.42
2023-05-22T12:15:24.926Z,51.77
2023-05-22T12:17:55.807Z,48.11
2023-05-22T12:20:23.402Z,47.12
2023-05-22T12:22:50.518Z,47.90
2023-05-22T12:25:17.966Z,50.20
2023-05-22T12:27:48.295Z,52.51
2023-05-22T12:30:15.872Z,53.65
2023-05-22T12:32:49.800Z,53.37
2023-05-22T12:35:24.422Z,54.45
2023-05-22T12:37:54.049Z,53.83
2023-05-22T12:40:25.341Z,49.63
2023-05-22T12:42:52.854Z,48.59
2023-05-22T12:45:20.076Z,48.62
2023-05-22T12:47:47.305Z,47.15
2023-05-22T12:50:14.544Z,50.15
2023-05-22T12:52:41.492Z,49.92
2023-05-22T12:55:15.627Z,47.70
2023-05-22T12:57:43.780Z,48.61
2023-05-22T13:00:14.056Z,51.01
2023-05-22T13:02:41.610Z,53.30
2023-05-22T13:05:08.872Z,49.54
2023-05-22T13:07:36.140Z,47.54
2023-05-22T13:10:04.719Z,48.57
2023-05-22T13:12:35.234Z,50.14
2023-05-22T13:15:05.556Z,49.82
2023-05-22T13:17:33.006Z,49.95
2023-05-22T13:20:00.278Z,50.03
2023-05-22T13:22:27.211Z,50.61
2023-05-22T13:24:54.285Z,52.04
2023-05-22T13:27:21.281Z,53.02
2023-05-22T13:29:48.154Z,52.94
2023-05-22T13:32:15.452Z,50.83
2023-05-22T13:34:42.632Z,51.55
2023-05-22T13:37:12.861Z,51.76
2023-05-22T13:39:40.062Z,46.54
2023-05-22T13:42:07.855Z,46.48
2023-05-22T13:44:45.171Z,46.56
2023-05-22T13:47:12.538Z,47.63
2023-05-22T13:49:39.773Z,50.67
2023-05-22T13:52:07.876Z,50.19
2023-05-22T13:54:34.881Z,50.50
2023-05-22T13:57:06.735Z,49.91
2023-05-22T13:59:33.698Z,49.00
2023-05-22T14:02:02.693Z,49.71
2023-05-22T14:04:30.119Z,45.52
2023-05-22T14:06:59.993Z,44.02
2023-05-22T14:09:30.777Z,45.74
2023-05-22T14:12:00.471Z,45.79
2023-05-22T14:14:27.413Z,45.75
2023-05-22T14:16:56.853Z,47.38
2023-05-22T14:19:26.597Z,49.71
2023-05-22T14:21:55.200Z,46.48
2023-05-22T14:24:25.483Z,44.61
2023-05-22T14:26:58.276Z,47.06
2023-05-22T14:29:26.154Z,47.95
2023-05-22T14:31:55.699Z,49.97
2023-05-22T14:34:22.598Z,51.36
2023-05-22T14:36:49.609Z,51.15
2023-05-22T14:39:17.214Z,51.18
2023-05-22T14:41:44.512Z,51.48
2023-05-22T14:44:11.592Z,49.98
2023-05-22T14:46:38.639Z,49.30
2023-05-22T14:49:05.621Z,48.67
2023-05-22T14:51:35.795Z,49.64
2023-05-22T14:54:02.931Z,50.49
2023-05-22T14:56:29.938Z,51.14
2023-05-22T14:58:57.734Z,51.20
2023-05-22T15:01:24.822Z,49.76
2023-05-22T15:03:52.505Z,47.54
2023-05-22T15:06:21.214Z,46.37
2023-05-22T15:08:49.322Z,43.74
2023-05-22T15:11:18.404Z,46.82
2023-05-22T15:13:45.366Z,45.08
2023-05-22T15:16:12.336Z,44.90
2023-05-22T15:18:39.878Z,43.99
2023-05-22T15:21:07.042Z,45.31
2023-05-22T15:23:33.969Z,47.33
2023-05-22T15:26:00.974Z,48.67
2023-05-22T15:28:27.965Z,48.97
2023-05-22T15:30:54.931Z,49.89
2023-05-22T15:33:22.217Z,50.82
2023-05-22T15:35:49.097Z,51.58
2023-05-22T15:38:17.580Z,52.80
2023-05-22T15:40:45.012Z,53.72
2023-05-22T15:43:11.983Z,52.61
2023-05-22T15:45:45.603Z,52.90
2023-05-22T15:48:13.385Z,54.14
2023-05-22T15:50:40.291Z,54.58
2023-05-22T15:53:07.304Z,54.03
2023-05-22T15:55:34.434Z,53.58
2023-05-22T15:58:03.140Z,53.93
2023-05-22T16:00:30.159Z,53.70
2023-05-22T16:02:57.170Z,52.91
2023-05-22T16:05:24.197Z,52.71
2023-05-22T16:07:51.044Z,50.29
2023-05-22T16:10:21.935Z,50.69
2023-05-22T16:12:48.913Z,47.18
2023-05-22T16:15:16.173Z,44.40
2023-05-22T16:17:48.067Z,45.07
2023-05-22T16:20:16.605Z,46.08
2023-05-22T16:22:48.795Z,46.58
2023-05-22T16:25:17.249Z,47.12
2023-05-22T16:27:44.596Z,48.50
2023-05-22T16:30:19.614Z,48.17
2023-05-22T16:32:47.194Z,48.81
2023-05-22T16:35:22.350Z,49.37
2023-05-22T16:37:50.543Z,46.54
2023-05-22T16:40:18.837Z,46.04
2023-05-22T16:42:48.120Z,45.40
2023-05-22T16:45:19.376Z,45.30
2023-05-22T16:47:46.871Z,46.26
2023-05-22T16:50:16.702Z,49.20
2023-05-22T16:52:43.754Z,50.39
2023-05-22T16:55:11.362Z,50.78
2023-05-22T16:57:43.026Z,50.79
2023-05-22T17:02:53.108Z,50.73
2023-05-22T17:05:24.588Z,49.67
2023-05-22T17:07:51.783Z,50.65
2023-05-22T17:10:21.999Z,51.29
2023-05-22T17:12:48.969Z,51.63
2023-05-22T17:15:16.000Z,51.13
2023-05-22T17:17:42.996Z,50.34
2023-05-22T17:20:12.078Z,51.18
2023-05-22T17:22:39.267Z,52.04
2023-05-22T17:25:06.662Z,52.60
2023-05-22T17:27:36.499Z,52.91
2023-05-22T17:30:06.517Z,53.25
2023-05-22T17:32:34.896Z,53.31
2023-05-22T17:35:07.119Z,53.50
2023-05-22T17:37:34.502Z,53.30
2023-05-22T17:40:01.422Z,53.75
2023-05-22T17:42:28.452Z,53.17
2023-05-22T17:44:55.490Z,53.41
2023-05-22T17:47:22.709Z,53.66
2023-05-22T17:49:51.417Z,54.63
2023-05-22T17:52:20.255Z,55.62
2023-05-22T17:54:47.716Z,55.73
2023-05-22T17:57:15.876Z,55.92
2023-05-22T17:59:45.820Z,56.26
2023-05-22T18:02:18.497Z,55.80
2023-05-22T18:04:48.787Z,56.15
2023-05-22T18:07:17.497Z,56.76
2023-05-22T18:09:50.928Z,56.61
2023-05-22T18:12:31.057Z,56.67
2023-05-22T18:15:00.511Z,57.55
2023-05-22T18:17:29.433Z,57.75
2023-05-22T18:19:56.507Z,57.73
2023-05-22T18:22:25.246Z,58.02
2023-05-22T18:24:52.529Z,58.72
2023-05-22T18:27:19.572Z,58.97
2023-05-22T18:29:47.286Z,58.58
2023-05-22T18:32:14.634Z,57.99
2023-05-22T18:34:42.205Z,57.02
2023-05-22T18:37:11.709Z,57.14
2023-05-22T18:39:39.151Z,57.28
2023-05-22T18:42:06.507Z,58.14
2023-05-22T18:44:35.440Z,57.46
2023-05-22T18:47:05.201Z,58.14
2023-05-22T18:49:35.308Z,57.37
2023-05-22T18:52:08.520Z,58.41
2023-05-22T18:54:41.354Z,57.55
2023-05-22T18:57:29.093Z,56.84
2023-05-22T19:00:04.181Z,57.31
2023-05-22T19:02:32.148Z,58.57
2023-05-22T19:05:01.184Z,59.96
2023-05-22T19:07:34.997Z,60.18
2023-05-22T19:10:05.494Z,60.73
2023-05-22T19:12:37.168Z,60.13
2023-05-22T19:15:05.452Z,59.96
2023-05-22T19:17:37.767Z,60.17
2023-05-22T19:20:13.140Z,59.58
2023-05-22T19:22:44.771Z,60.38
2023-05-22T19:25:29.239Z,58.60
2023-05-22T19:28:00.530Z,59.98
2023-05-22T19:30:28.108Z,59.43
2023-05-22T19:33:08.553Z,60.50
2023-05-22T19:35:40.646Z,60.01
2023-05-22T19:38:09.366Z,60.34
2023-05-22T19:40:49.823Z,60.65
2023-05-22T19:43:27.537Z,61.01
2023-05-22T19:45:56.855Z,60.48
2023-05-22T19:48:26.002Z,60.54
2023-05-22T19:50:53.511Z,60.91
2023-05-22T19:53:21.689Z,60.81
2023-05-22T19:55:49.567Z,60.49
2023-05-22T19:58:19.784Z,60.96
2023-05-22T20:00:49.884Z,61.06
2023-05-22T20:03:21.430Z,61.22
2023-05-22T20:05:54.149Z,61.44
2023-05-22T20:08:26.193Z,61.79
2023-05-22T20:10:54.820Z,61.51
2023-05-22T20:13:23.302Z,62.86
2023-05-22T20:15:54.838Z,62.84
2023-05-22T20:18:30.330Z,62.96
2023-05-22T20:20:58.058Z,62.50
2023-05-22T20:23:28.405Z,63.13
2023-05-22T20:25:56.617Z,62.86
2023-05-22T20:28:23.978Z,63.59
2023-05-22T20:30:55.121Z,63.87
2023-05-22T20:33:30.399Z,62.55
2023-05-22T20:35:59.811Z,62.68
2023-05-22T20:38:33.974Z,62.24
2023-05-22T20:41:21.177Z,63.70
2023-05-22T20:43:48.396Z,64.13
2023-05-22T20:46:16.896Z,64.57
2023-05-22T20:48:48.437Z,65.45
2023-05-22T20:51:25.778Z,65.48
2023-05-22T20:54:01.638Z,64.90
2023-05-22T20:56:30.366Z,65.07
2023-05-22T20:58:57.420Z,65.71
2023-05-22T21:01:27.960Z,65.84
2023-05-22T21:03:58.381Z,64.80
2023-05-22T21:06:26.720Z,66.09
2023-05-22T21:09:01.845Z,64.70
2023-05-22T21:11:28.989Z,66.11
2023-05-22T21:13:56.114Z,65.53
2023-05-22T21:16:23.249Z,64.81
2023-05-22T21:18:50.445Z,64.75
2023-05-22T21:21:22.140Z,64.84
2023-05-22T21:23:50.117Z,65.88
2023-05-22T21:26:17.453Z,65.05
2023-05-22T21:28:44.852Z,65.03
2023-05-22T21:31:11.831Z,64.97
2023-05-22T21:33:38.864Z,65.36
2023-05-22T21:36:08.656Z,65.42
2023-05-22T21:38:35.856Z,65.83
2023-05-22T21:41:02.800Z,66.37
2023-05-22T21:43:29.726Z,66.33
2023-05-22T21:45:59.695Z,66.62
2023-05-22T21:48:26.787Z,67.44
2023-05-22T21:50:53.680Z,67.53
2023-05-22T21:53:22.556Z,67.10
2023-05-22T21:55:49.540Z,67.71
2023-05-22T21:58:16.626Z,66.31
2023-05-22T22:00:47.076Z,65.57
2023-05-22T22:03:16.905Z,66.93
2023-05-22T22:05:44.872Z,67.19
2023-05-22T22:08:12.710Z,67.33
2023-05-22T22:10:39.964Z,67.75
2023-05-22T22:13:07.217Z,67.62
2023-05-22T22:15:34.295Z,68.24
2023-05-22T22:18:02.639Z,67.96
2023-05-22T22:20:44.421Z,68.20
2023-05-22T22:23:12.208Z,68.68
2023-05-22T22:25:39.638Z,69.16
2023-05-22T22:28:07.628Z,69.34
2023-05-22T22:30:37.912Z,69.00
2023-05-22T22:33:05.956Z,69.09
2023-05-22T22:35:32.978Z,69.46
2023-05-22T22:38:04.841Z,68.94
2023-05-22T22:40:32.814Z,69.52
2023-05-22T22:43:04.330Z,69.91
2023-05-22T22:45:32.666Z,69.93
2023-05-22T22:48:01.282Z,69.95
2023-05-22T22:50:28.546Z,70.08
2023-05-22T22:52:56.038Z,70.26
2023-05-22T22:55:23.244Z,70.58
2023-05-22T22:57:50.692Z,70.64
2023-05-22T23:00:18.532Z,70.45
2023-05-22T23:02:45.817Z,70.41
2023-05-22T23:05:13.723Z,70.23
2023-05-22T23:07:44.747Z,69.97
2023-05-22T23:10:11.862Z,69.79
2023-05-22T23:12:42.197Z,69.86
2023-05-22T23:15:09.897Z,70.14
2023-05-22T23:17:37.553Z,70.21
2023-05-22T23:20:05.845Z,70.30
2023-05-22T23:22:32.916Z,71.00
2023-05-22T23:25:05.494Z,71.14
2023-05-22T23:27:33.460Z,71.73
2023-05-22T23:30:02.051Z,71.78
2023-05-22T23:32:29.048Z,71.74
2023-05-22T23:34:56.877Z,71.79
2023-05-22T23:37:24.105Z,71.93
2023-05-22T23:39:52.712Z,71.68
2023-05-22T23:42:25.018Z,71.65
2023-05-22T23:44:58.060Z,71.55
2023-05-22T23:47:26.693Z,71.39
2023-05-22T23:49:55.588Z,70.75
2023-05-22T23:52:25.065Z,70.56
2023-05-22T23:54:51.948Z,69.83
2023-05-22T23:57:19.049Z,70.45
2023-05-22T23:59:46.094Z,70.75
